createdAt,value
2019-02-27T00:00:09.175Z,4.40
2019-02-27T00:01:08.718Z,4.36
2019-02-27T00:02:08.720Z,4.36
2019-02-27T00:03:08.693Z,4.36
2019-02-27T00:04:08.700Z,4.33
2019-02-27T00:05:08.995Z,4.28
2019-02-27T00:06:08.663Z,4.33
2019-02-27T00:07:08.656Z,4.26
2019-02-27T00:08:08.663Z,4.32
2019-02-27T00:09:08.630Z,4.28
2019-02-27T00:10:08.624Z,4.26
2019-02-27T00:11:09.994Z,4.24
2019-02-27T00:12:08.599Z,4.19
2019-02-27T00:13:08.587Z,4.21
2019-02-27T00:14:08.599Z,4.26
2019-02-27T00:15:08.567Z,4.15
2019-02-27T00:16:10.842Z,4.18
2019-02-27T00:17:08.550Z,4.18
2019-02-27T00:18:08.539Z,4.16
2019-02-27T00:19:08.543Z,4.14
2019-02-27T00:20:08.519Z,4.14
2019-02-27T00:21:10.997Z,4.08
2019-02-27T00:22:08.492Z,4.06
2019-02-27T00:23:08.483Z,4.12
2019-02-27T00:24:08.492Z,4.10
2019-02-27T00:25:08.462Z,4.06
2019-02-27T00:26:08.976Z,4.06
2019-02-27T00:27:08.442Z,4.04
2019-02-27T00:28:08.437Z,3.97
2019-02-27T00:29:08.481Z,4.00
2019-02-27T00:30:08.410Z,4.04
2019-02-27T00:31:11.135Z,3.96
2019-02-27T00:32:08.391Z,3.88
2019-02-27T00:33:08.384Z,3.89
2019-02-27T00:34:08.394Z,3.80
2019-02-27T00:35:08.361Z,3.80
2019-02-27T00:36:12.039Z,3.86
2019-02-27T00:37:08.342Z,3.83
2019-02-27T00:38:08.339Z,3.85
2019-02-27T00:39:08.322Z,3.86
2019-02-27T00:40:08.329Z,3.83
2019-02-27T00:41:11.888Z,3.86
2019-02-27T00:42:08.294Z,3.86
2019-02-27T00:43:08.289Z,3.82
2019-02-27T00:44:08.283Z,3.78
2019-02-27T00:45:08.286Z,3.80
2019-02-27T00:46:08.249Z,3.82
2019-02-27T00:47:08.240Z,3.83
2019-02-27T00:48:08.239Z,3.75
2019-02-27T00:49:08.221Z,3.76
2019-02-27T00:50:08.250Z,3.78
2019-02-27T00:51:09.659Z,3.82
2019-02-27T00:52:08.188Z,3.76
2019-02-27T00:53:08.183Z,3.78
2019-02-27T00:54:08.166Z,3.76
2019-02-27T00:55:08.165Z,3.78
2019-02-27T00:56:11.997Z,3.68
2019-02-27T00:57:08.134Z,3.72
2019-02-27T00:58:08.130Z,3.70
2019-02-27T00:59:08.115Z,3.62
2019-02-27T01:00:08.101Z,3.72
2019-02-27T01:01:10.009Z,3.70
2019-02-27T01:02:08.080Z,3.71
2019-02-27T01:03:08.074Z,3.62
2019-02-27T01:04:08.066Z,3.62
2019-02-27T01:05:09.095Z,3.61
2019-02-27T01:06:08.064Z,3.58
2019-02-27T01:07:08.031Z,3.54
2019-02-27T01:08:08.021Z,3.60
2019-02-27T01:09:08.014Z,3.53
2019-02-27T01:10:12.036Z,3.52
2019-02-27T01:11:08.007Z,3.53
2019-02-27T01:12:07.977Z,3.58
2019-02-27T01:13:07.985Z,3.52
2019-02-27T01:14:07.957Z,3.43
2019-02-27T01:15:10.618Z,3.47
2019-02-27T01:16:07.956Z,3.43
2019-02-27T01:17:07.944Z,3.46
2019-02-27T01:18:07.915Z,3.40
2019-02-27T01:19:07.905Z,3.43
2019-02-27T01:20:11.165Z,3.36
2019-02-27T01:21:07.931Z,3.39
2019-02-27T01:22:07.877Z,3.40
2019-02-27T01:23:10.911Z,3.43
2019-02-27T01:24:07.854Z,3.42
2019-02-27T01:25:07.862Z,3.39
2019-02-27T01:26:07.853Z,3.28
2019-02-27T01:27:07.826Z,3.30
2019-02-27T01:28:10.839Z,3.33
2019-02-27T01:29:07.802Z,3.23
2019-02-27T01:30:07.813Z,3.28
2019-02-27T01:31:07.808Z,3.27
2019-02-27T01:32:07.771Z,3.30
2019-02-27T01:33:07.762Z,3.36
2019-02-27T01:34:11.188Z,3.27
2019-02-27T01:35:07.743Z,3.15
2019-02-27T01:36:07.752Z,3.16
2019-02-27T01:37:07.722Z,3.21
2019-02-27T01:38:07.714Z,3.13
2019-02-27T01:39:08.923Z,3.13
2019-02-27T01:40:07.749Z,3.18
2019-02-27T01:41:07.715Z,3.15
2019-02-27T01:42:07.679Z,3.20
2019-02-27T01:43:07.660Z,3.16
2019-02-27T01:44:07.649Z,3.09
2019-02-27T01:45:07.640Z,2.91
2019-02-27T01:46:07.649Z,3.03
2019-02-27T01:47:07.623Z,2.92
2019-02-27T01:48:09.308Z,3.00
2019-02-27T01:49:07.597Z,2.97
2019-02-27T01:50:07.593Z,2.82
2019-02-27T01:51:07.597Z,2.89
2019-02-27T01:52:07.569Z,2.81
2019-02-27T01:53:08.101Z,2.94
2019-02-27T01:54:07.553Z,2.87
2019-02-27T01:55:07.539Z,2.88
2019-02-27T01:56:07.547Z,2.84
2019-02-27T01:57:07.517Z,2.87
2019-02-27T01:58:09.571Z,2.88
2019-02-27T01:59:07.507Z,2.88
2019-02-27T02:00:07.488Z,2.81
2019-02-27T02:01:07.498Z,2.85
2019-02-27T02:02:07.468Z,2.74
2019-02-27T02:03:07.459Z,2.79
2019-02-27T02:04:07.447Z,2.84
2019-02-27T02:05:07.436Z,2.82
2019-02-27T02:06:07.449Z,2.82
2019-02-27T02:07:07.537Z,2.81
2019-02-27T02:08:07.412Z,2.84
2019-02-27T02:09:07.397Z,2.84
2019-02-27T02:10:07.388Z,2.82
2019-02-27T02:11:07.402Z,2.88
2019-02-27T02:12:08.633Z,2.87
2019-02-27T02:13:07.357Z,2.74
2019-02-27T02:14:07.346Z,2.84
2019-02-27T02:15:07.337Z,2.79
2019-02-27T02:16:07.348Z,2.82
2019-02-27T02:17:07.467Z,2.88
2019-02-27T02:18:07.304Z,2.79
2019-02-27T02:19:07.297Z,2.84
2019-02-27T02:20:07.284Z,2.76
2019-02-27T02:21:07.320Z,2.76
2019-02-27T02:22:08.910Z,2.76
2019-02-27T02:23:07.256Z,2.77
2019-02-27T02:24:07.249Z,2.74
2019-02-27T02:25:07.236Z,2.85
2019-02-27T02:26:07.240Z,2.82
2019-02-27T02:27:08.228Z,2.85
2019-02-27T02:28:07.208Z,2.77
2019-02-27T02:29:07.224Z,2.67
2019-02-27T02:30:07.191Z,2.77
2019-02-27T02:31:07.178Z,2.81
2019-02-27T02:32:07.210Z,2.84
2019-02-27T02:33:07.160Z,2.70
2019-02-27T02:34:07.144Z,2.67
2019-02-27T02:35:07.158Z,2.73
2019-02-27T02:36:07.124Z,2.74
2019-02-27T02:37:07.116Z,2.70
2019-02-27T02:38:12.067Z,2.73
2019-02-27T02:39:08.093Z,2.77
2019-02-27T02:40:07.091Z,2.77
2019-02-27T02:41:08.452Z,2.74
2019-02-27T02:42:07.071Z,2.66
2019-02-27T02:43:07.075Z,2.74
2019-02-27T02:44:07.044Z,2.70
2019-02-27T02:45:07.034Z,2.73
2019-02-27T02:46:08.868Z,2.64
2019-02-27T02:47:07.018Z,2.70
2019-02-27T02:48:07.012Z,2.66
2019-02-27T02:49:08.527Z,2.63
2019-02-27T02:50:06.980Z,2.66
2019-02-27T02:51:06.969Z,2.52
2019-02-27T02:52:06.984Z,2.59
2019-02-27T02:53:06.963Z,2.69
2019-02-27T02:54:06.960Z,2.63
2019-02-27T02:55:11.923Z,2.63
2019-02-27T02:56:07.921Z,2.58
2019-02-27T02:57:06.907Z,2.55
2019-02-27T02:58:07.924Z,2.52
2019-02-27T02:59:06.934Z,2.56
2019-02-27T03:00:06.935Z,2.51
2019-02-27T03:01:06.869Z,2.49
2019-02-27T03:02:06.858Z,2.55
2019-02-27T03:03:06.858Z,2.46
2019-02-27T03:04:12.524Z,2.51
2019-02-27T03:05:07.872Z,2.49
2019-02-27T03:06:06.837Z,2.45
2019-02-27T03:07:07.197Z,2.45
2019-02-27T03:08:06.800Z,2.46
2019-02-27T03:09:06.788Z,2.45
2019-02-27T03:10:08.141Z,2.41
2019-02-27T03:11:06.789Z,2.40
2019-02-27T03:12:06.758Z,2.31
2019-02-27T03:13:07.424Z,2.38
2019-02-27T03:14:06.745Z,2.31
2019-02-27T03:15:06.729Z,2.35
2019-02-27T03:16:06.737Z,2.35
2019-02-27T03:17:06.707Z,2.31
2019-02-27T03:18:06.697Z,2.35
2019-02-27T03:19:06.702Z,2.22
2019-02-27T03:20:06.689Z,2.22
2019-02-27T03:21:06.687Z,2.19
2019-02-27T03:22:06.655Z,2.19
2019-02-27T03:23:06.649Z,2.04
2019-02-27T03:24:06.636Z,2.01
2019-02-27T03:25:06.631Z,2.08
2019-02-27T03:26:06.615Z,1.98
2019-02-27T03:27:06.634Z,2.08
2019-02-27T03:28:06.604Z,1.93
2019-02-27T03:29:06.594Z,1.93
2019-02-27T03:30:06.575Z,1.99
2019-02-27T03:31:15.954Z,1.93
2019-02-27T03:32:07.592Z,1.91
2019-02-27T03:33:06.549Z,1.93
2019-02-27T03:34:09.153Z,1.97
2019-02-27T03:35:06.591Z,1.90
2019-02-27T03:36:06.524Z,1.90
2019-02-27T03:37:06.536Z,1.90
2019-02-27T03:38:06.514Z,1.87
2019-02-27T03:39:06.487Z,1.94
2019-02-27T03:40:10.915Z,1.93
2019-02-27T03:41:07.470Z,1.97
2019-02-27T03:42:06.455Z,2.01
2019-02-27T03:43:10.018Z,1.99
2019-02-27T03:44:06.434Z,2.02
2019-02-27T03:45:06.434Z,2.06
2019-02-27T03:46:07.189Z,1.99
2019-02-27T03:47:06.404Z,2.02
2019-02-27T03:48:06.417Z,2.12
2019-02-27T03:49:06.405Z,2.15
2019-02-27T03:50:06.378Z,2.17
2019-02-27T03:51:06.384Z,2.30
2019-02-27T03:52:06.361Z,2.34
2019-02-27T03:53:10.773Z,2.38
2019-02-27T03:54:06.346Z,2.46
2019-02-27T03:55:06.325Z,2.64
2019-02-27T03:56:09.763Z,2.73
2019-02-27T03:57:06.306Z,2.79
2019-02-27T03:58:06.288Z,2.89
2019-02-27T03:59:07.489Z,2.95
2019-02-27T04:00:06.266Z,3.12
2019-02-27T04:01:06.262Z,3.13
2019-02-27T04:02:06.947Z,3.23
2019-02-27T04:03:18.228Z,3.27
2019-02-27T04:04:06.241Z,3.27
2019-02-27T04:05:07.459Z,3.27
2019-02-27T04:06:06.208Z,3.30
2019-02-27T04:07:06.216Z,3.33
2019-02-27T04:08:08.574Z,3.34
2019-02-27T04:09:06.184Z,3.28
2019-02-27T04:10:06.176Z,3.46
2019-02-27T04:11:06.843Z,3.43
2019-02-27T04:12:06.146Z,3.43
2019-02-27T04:13:06.136Z,3.30
2019-02-27T04:14:06.125Z,3.43
2019-02-27T04:15:06.141Z,3.39
2019-02-27T04:16:06.130Z,3.30
2019-02-27T04:17:07.500Z,3.31
2019-02-27T04:18:06.084Z,3.33
2019-02-27T04:19:06.073Z,3.23
2019-02-27T04:20:06.077Z,3.23
2019-02-27T04:21:06.079Z,3.18
2019-02-27T04:22:06.042Z,3.18
2019-02-27T04:23:11.459Z,3.05
2019-02-27T04:24:07.024Z,3.18
2019-02-27T04:25:06.011Z,3.15
2019-02-27T04:26:06.710Z,3.05
2019-02-27T04:27:06.013Z,2.95
2019-02-27T04:28:06.004Z,3.03
2019-02-27T04:29:08.402Z,3.00
2019-02-27T04:30:05.960Z,3.00
2019-02-27T04:31:05.950Z,2.98
2019-02-27T04:32:05.980Z,2.91
2019-02-27T04:33:05.937Z,2.97
2019-02-27T04:34:05.931Z,2.88
2019-02-27T04:35:06.819Z,2.92
2019-02-27T04:36:05.899Z,2.81
2019-02-27T04:37:05.893Z,3.07
2019-02-27T04:38:05.902Z,3.07
2019-02-27T04:39:05.872Z,3.09
2019-02-27T04:40:05.871Z,3.12
2019-02-27T04:41:05.855Z,3.15
2019-02-27T04:42:05.870Z,3.24
2019-02-27T04:43:05.844Z,3.20
2019-02-27T04:44:06.201Z,3.15
2019-02-27T04:45:05.814Z,3.15
2019-02-27T04:46:05.806Z,3.23
2019-02-27T04:47:05.797Z,3.23
2019-02-27T04:48:05.830Z,3.23
2019-02-27T04:49:05.781Z,3.28
2019-02-27T04:50:05.766Z,3.30
2019-02-27T04:51:05.758Z,3.30
2019-02-27T04:52:05.746Z,3.27
2019-02-27T04:53:05.759Z,3.30
2019-02-27T04:54:07.316Z,3.34
2019-02-27T04:55:05.715Z,3.31
2019-02-27T04:56:05.709Z,3.40
2019-02-27T04:57:05.686Z,3.40
2019-02-27T04:58:08.613Z,3.25
2019-02-27T04:59:05.673Z,3.39
2019-02-27T05:00:05.663Z,3.31
2019-02-27T05:01:05.647Z,3.30
2019-02-27T05:02:05.637Z,3.28
2019-02-27T05:03:05.628Z,3.25
2019-02-27T05:04:05.641Z,3.28
2019-02-27T05:05:06.136Z,3.24
2019-02-27T05:06:05.598Z,3.21
2019-02-27T05:07:05.584Z,3.23
2019-02-27T05:08:05.580Z,3.21
2019-02-27T05:09:05.597Z,3.25
2019-02-27T05:10:07.247Z,3.15
2019-02-27T05:11:05.553Z,3.20
2019-02-27T05:12:05.538Z,3.18
2019-02-27T05:13:05.525Z,3.13
2019-02-27T05:14:05.564Z,3.16
2019-02-27T05:15:05.527Z,3.13
2019-02-27T05:16:05.506Z,3.16
2019-02-27T05:17:05.490Z,3.13
2019-02-27T05:18:05.482Z,3.06
2019-02-27T05:19:05.523Z,3.07
2019-02-27T05:20:05.485Z,3.09
2019-02-27T05:21:05.453Z,3.16
2019-02-27T05:22:05.438Z,3.06
2019-02-27T05:23:05.431Z,3.10
2019-02-27T05:24:07.858Z,3.05
2019-02-27T05:25:05.422Z,3.21
2019-02-27T05:26:05.409Z,3.15
2019-02-27T05:27:05.390Z,3.13
2019-02-27T05:28:05.400Z,3.18
2019-02-27T05:29:05.658Z,3.12
2019-02-27T05:30:05.384Z,3.24
2019-02-27T05:31:05.385Z,3.16
2019-02-27T05:32:05.346Z,3.15
2019-02-27T05:33:05.345Z,3.07
2019-02-27T05:34:05.318Z,3.12
2019-02-27T05:35:05.324Z,3.16
2019-02-27T05:36:05.296Z,3.12
2019-02-27T05:37:06.023Z,3.15
2019-02-27T05:38:05.276Z,3.03
2019-02-27T05:39:05.285Z,3.12
2019-02-27T05:40:05.280Z,3.21
2019-02-27T05:41:05.254Z,3.16
2019-02-27T05:42:06.307Z,3.02
2019-02-27T05:43:05.227Z,3.21
2019-02-27T05:44:05.238Z,3.27
2019-02-27T05:45:05.204Z,3.16
2019-02-27T05:46:05.217Z,3.24
2019-02-27T05:47:05.195Z,3.28
2019-02-27T05:48:05.176Z,3.27
2019-02-27T05:49:05.179Z,3.24
2019-02-27T05:50:05.156Z,3.25
2019-02-27T05:51:07.679Z,3.33
2019-02-27T05:52:05.144Z,3.34
2019-02-27T05:53:05.124Z,3.33
2019-02-27T05:54:05.110Z,3.39
2019-02-27T05:55:06.426Z,3.42
2019-02-27T05:56:05.090Z,3.40
2019-02-27T05:57:05.099Z,3.42
2019-02-27T05:58:05.068Z,3.49
2019-02-27T05:59:05.059Z,3.43
2019-02-27T06:00:07.000Z,3.53
2019-02-27T06:01:05.789Z,3.50
2019-02-27T06:02:05.048Z,3.52
2019-02-27T06:03:05.020Z,3.50
2019-02-27T06:04:05.008Z,3.52
2019-02-27T06:05:04.997Z,3.53
2019-02-27T06:06:06.707Z,3.58
2019-02-27T06:07:04.994Z,3.53
2019-02-27T06:08:04.967Z,3.53
2019-02-27T06:09:04.956Z,3.60
2019-02-27T06:10:05.027Z,3.62
2019-02-27T06:11:04.937Z,3.60
2019-02-27T06:12:06.879Z,3.65
2019-02-27T06:13:04.915Z,3.58
2019-02-27T06:14:04.904Z,3.50
2019-02-27T06:15:04.903Z,3.54
2019-02-27T06:16:08.853Z,3.52
2019-02-27T06:17:04.892Z,3.52
2019-02-27T06:18:04.864Z,3.57
2019-02-27T06:19:04.863Z,3.54
2019-02-27T06:20:07.658Z,3.52
2019-02-27T06:21:04.835Z,3.53
2019-02-27T06:22:05.931Z,3.53
2019-02-27T06:23:05.061Z,3.52
2019-02-27T06:24:04.813Z,3.52
2019-02-27T06:25:04.795Z,3.52
2019-02-27T06:26:04.801Z,3.49
2019-02-27T06:27:06.275Z,3.54
2019-02-27T06:28:04.767Z,3.53
2019-02-27T06:29:04.753Z,3.53
2019-02-27T06:30:04.742Z,3.57
2019-02-27T06:31:04.740Z,3.54
2019-02-27T06:32:04.741Z,3.53
2019-02-27T06:33:04.733Z,3.53
2019-02-27T06:34:04.702Z,3.57
2019-02-27T06:35:04.692Z,3.58
2019-02-27T06:36:05.315Z,3.52
2019-02-27T06:37:04.698Z,3.54
2019-02-27T06:38:04.670Z,3.50
2019-02-27T06:39:04.653Z,3.57
2019-02-27T06:40:07.128Z,3.49
2019-02-27T06:41:04.636Z,3.57
2019-02-27T06:42:04.707Z,3.53
2019-02-27T06:43:04.610Z,3.53
2019-02-27T06:44:04.600Z,3.52
2019-02-27T06:45:04.590Z,3.57
2019-02-27T06:46:04.580Z,3.65
2019-02-27T06:47:06.954Z,3.67
2019-02-27T06:48:09.464Z,3.65
2019-02-27T06:49:05.557Z,3.65
2019-02-27T06:50:04.539Z,3.75
2019-02-27T06:51:04.530Z,3.75
2019-02-27T06:52:08.981Z,3.75
2019-02-27T06:53:05.528Z,3.75
2019-02-27T06:54:04.497Z,3.71
2019-02-27T06:55:04.487Z,3.76
2019-02-27T06:56:04.477Z,3.78
2019-02-27T06:57:07.505Z,3.76
2019-02-27T06:58:04.482Z,3.83
2019-02-27T06:59:04.446Z,3.83
2019-02-27T07:00:04.436Z,3.82
2019-02-27T07:01:07.149Z,3.92
2019-02-27T07:02:05.416Z,3.85
2019-02-27T07:03:04.405Z,3.88
2019-02-27T07:04:04.777Z,3.92
2019-02-27T07:05:04.388Z,3.94
2019-02-27T07:06:04.388Z,3.90
2019-02-27T07:07:04.362Z,3.92
2019-02-27T07:08:05.213Z,3.88
2019-02-27T07:09:04.366Z,3.90
2019-02-27T07:10:04.345Z,3.94
2019-02-27T07:11:10.863Z,3.89
2019-02-27T07:12:07.117Z,3.98
2019-02-27T07:13:04.301Z,4.04
2019-02-27T07:14:04.290Z,4.06
2019-02-27T07:15:04.306Z,4.15
2019-02-27T07:16:04.271Z,4.15
2019-02-27T07:17:04.259Z,4.14
2019-02-27T07:18:06.212Z,4.14
2019-02-27T07:19:04.252Z,4.16
2019-02-27T07:20:11.790Z,4.15
2019-02-27T07:21:04.231Z,4.18
2019-02-27T07:22:06.276Z,4.18
2019-02-27T07:23:04.200Z,4.22
2019-02-27T07:24:04.195Z,4.21
2019-02-27T07:25:06.706Z,4.21
2019-02-27T07:26:04.178Z,4.22
2019-02-27T07:27:04.174Z,4.26
2019-02-27T07:28:08.469Z,4.29
2019-02-27T07:29:04.139Z,4.26
2019-02-27T07:30:04.859Z,4.34
2019-02-27T07:31:04.120Z,4.28
2019-02-27T07:32:04.113Z,4.29
2019-02-27T07:33:06.708Z,4.33
2019-02-27T07:34:04.089Z,4.40
2019-02-27T07:35:04.106Z,4.44
2019-02-27T07:36:04.239Z,4.40
2019-02-27T07:37:04.058Z,4.39
2019-02-27T07:38:04.056Z,4.46
2019-02-27T07:39:04.039Z,4.47
2019-02-27T07:40:08.021Z,4.44
2019-02-27T07:41:04.048Z,4.43
2019-02-27T07:42:04.006Z,4.54
2019-02-27T07:43:05.762Z,4.51
2019-02-27T07:44:03.985Z,4.54
2019-02-27T07:45:03.974Z,4.54
2019-02-27T07:46:04.080Z,4.51
2019-02-27T07:47:03.959Z,4.61
2019-02-27T07:48:03.945Z,4.59
2019-02-27T07:49:03.939Z,4.64
2019-02-27T07:50:06.217Z,4.67
2019-02-27T07:51:03.951Z,4.70
2019-02-27T07:52:03.907Z,4.80
2019-02-27T07:53:03.897Z,4.75
2019-02-27T07:54:04.061Z,4.70
2019-02-27T07:55:15.452Z,4.73
2019-02-27T07:56:04.895Z,4.70
2019-02-27T07:57:03.855Z,4.77
2019-02-27T07:58:03.841Z,4.76
2019-02-27T07:59:03.830Z,4.75
2019-02-27T08:00:03.826Z,4.84
2019-02-27T08:01:04.634Z,4.83
2019-02-27T08:02:03.829Z,4.79
2019-02-27T08:03:03.789Z,4.83
2019-02-27T08:04:03.779Z,4.98
2019-02-27T08:05:03.773Z,4.91
2019-02-27T08:06:03.757Z,4.95
2019-02-27T08:07:03.765Z,4.96
2019-02-27T08:08:03.737Z,5.12
2019-02-27T08:09:03.727Z,5.14
2019-02-27T08:10:04.698Z,5.23
2019-02-27T08:11:03.705Z,5.16
2019-02-27T08:12:03.717Z,5.20
2019-02-27T08:13:03.682Z,5.20
2019-02-27T08:14:03.957Z,5.32
2019-02-27T08:15:03.664Z,5.32
2019-02-27T08:16:03.653Z,5.48
2019-02-27T08:17:03.657Z,5.55
2019-02-27T08:18:03.659Z,5.70
2019-02-27T08:19:03.617Z,5.63
2019-02-27T08:20:03.616Z,5.70
2019-02-27T08:21:03.594Z,5.74
2019-02-27T08:22:03.606Z,5.68
2019-02-27T08:23:03.573Z,5.74
2019-02-27T08:24:07.484Z,5.75
2019-02-27T08:25:03.551Z,5.74
2019-02-27T08:26:05.104Z,5.82
2019-02-27T08:27:03.529Z,5.83
2019-02-27T08:28:03.538Z,5.91
2019-02-27T08:29:03.510Z,5.96
2019-02-27T08:30:03.499Z,5.92
2019-02-27T08:31:03.489Z,5.88
2019-02-27T08:32:05.420Z,5.93
2019-02-27T08:33:08.159Z,5.91
2019-02-27T08:34:04.454Z,6.10
2019-02-27T08:35:03.460Z,5.98
2019-02-27T08:36:03.436Z,6.16
2019-02-27T08:37:03.425Z,6.28
2019-02-27T08:38:03.441Z,6.29
2019-02-27T08:39:03.399Z,6.46
2019-02-27T08:40:03.389Z,6.53
2019-02-27T08:41:03.378Z,6.61
2019-02-27T08:42:04.080Z,6.63
2019-02-27T08:43:03.379Z,6.71
2019-02-27T08:44:03.382Z,6.83
2019-02-27T08:45:03.335Z,6.77
2019-02-27T08:46:03.329Z,6.86
2019-02-27T08:47:04.261Z,6.97
2019-02-27T08:48:03.306Z,7.07
2019-02-27T08:49:03.310Z,7.13
2019-02-27T08:50:03.282Z,7.22
2019-02-27T08:51:08.386Z,7.41
2019-02-27T08:52:04.260Z,7.52
2019-02-27T08:53:03.250Z,7.58
2019-02-27T08:54:03.257Z,7.67
2019-02-27T08:55:05.709Z,7.77
2019-02-27T08:56:03.222Z,7.81
2019-02-27T08:57:03.213Z,7.92
2019-02-27T08:58:03.197Z,7.97
2019-02-27T08:59:05.824Z,8.12
2019-02-27T09:00:03.177Z,8.17
2019-02-27T09:01:03.166Z,8.28
2019-02-27T09:02:03.155Z,8.35
2019-02-27T09:03:03.743Z,8.54
2019-02-27T09:04:03.159Z,8.57
2019-02-27T09:05:03.132Z,8.63
2019-02-27T09:06:03.115Z,8.68
2019-02-27T09:07:03.543Z,8.79
2019-02-27T09:08:03.094Z,8.81
2019-02-27T09:09:03.111Z,8.79
2019-02-27T09:10:03.071Z,8.90
2019-02-27T09:11:06.654Z,9.02
2019-02-27T09:12:03.227Z,9.06
2019-02-27T09:13:05.884Z,9.16
2019-02-27T09:14:03.033Z,9.20
2019-02-27T09:15:03.046Z,9.35
2019-02-27T09:16:03.011Z,9.52
2019-02-27T09:17:03.005Z,9.48
2019-02-27T09:18:02.988Z,9.63
2019-02-27T09:19:02.984Z,9.68
2019-02-27T09:20:02.983Z,9.83
2019-02-27T09:21:02.964Z,9.94
2019-02-27T09:22:03.110Z,10.10
2019-02-27T09:23:02.933Z,10.18
2019-02-27T09:24:02.925Z,10.15
2019-02-27T09:25:02.935Z,10.22
2019-02-27T09:26:03.527Z,10.28
2019-02-27T09:27:02.902Z,10.39
2019-02-27T09:28:03.574Z,10.47
2019-02-27T09:29:02.876Z,10.58
2019-02-27T09:30:02.907Z,10.51
2019-02-27T09:31:04.314Z,10.66
2019-02-27T09:32:02.842Z,10.56
2019-02-27T09:33:02.844Z,10.68
2019-02-27T09:34:02.819Z,10.78
2019-02-27T09:35:02.852Z,10.74
2019-02-27T09:36:02.809Z,10.89
2019-02-27T09:37:02.787Z,10.81
2019-02-27T09:38:02.775Z,10.98
2019-02-27T09:39:02.765Z,11.06
2019-02-27T09:40:05.750Z,11.06
2019-02-27T09:41:03.348Z,11.06
2019-02-27T09:42:02.740Z,11.13
2019-02-27T09:43:02.724Z,11.17
2019-02-27T09:44:02.714Z,11.31
2019-02-27T09:45:02.700Z,11.46
2019-02-27T09:46:02.711Z,11.52
2019-02-27T09:47:02.691Z,11.52
2019-02-27T09:48:02.669Z,11.47
2019-02-27T09:49:06.860Z,11.43
2019-02-27T09:50:02.648Z,11.56
2019-02-27T09:51:02.660Z,11.62
2019-02-27T09:52:02.629Z,11.72
2019-02-27T09:53:03.514Z,11.75
2019-02-27T09:54:02.607Z,11.71
2019-02-27T09:55:02.596Z,11.75
2019-02-27T09:56:02.612Z,11.85
2019-02-27T09:57:02.895Z,11.93
2019-02-27T09:58:02.575Z,12.01
2019-02-27T09:59:02.556Z,12.11
2019-02-27T10:00:02.993Z,12.16
2019-02-27T10:01:03.247Z,12.23
2019-02-27T10:02:02.527Z,12.27
2019-02-27T10:03:02.516Z,12.21
2019-02-27T10:04:02.504Z,12.19
2019-02-27T10:05:03.728Z,12.16
2019-02-27T10:06:02.502Z,12.15
2019-02-27T10:07:02.472Z,12.15
2019-02-27T10:08:02.457Z,12.26
2019-02-27T10:09:02.446Z,12.34
2019-02-27T10:10:02.438Z,12.38
2019-02-27T10:11:02.449Z,12.42
2019-02-27T10:12:02.414Z,12.42
2019-02-27T10:13:03.289Z,12.41
2019-02-27T10:14:02.413Z,12.38
2019-02-27T10:15:02.390Z,12.46
2019-02-27T10:16:03.715Z,12.49
2019-02-27T10:17:02.367Z,12.42
2019-02-27T10:18:02.354Z,12.44
2019-02-27T10:19:02.352Z,12.46
2019-02-27T10:20:02.861Z,12.44
2019-02-27T10:21:02.325Z,12.56
2019-02-27T10:22:02.335Z,12.69
2019-02-27T10:23:02.297Z,12.79
2019-02-27T10:24:04.494Z,12.78
2019-02-27T10:25:02.280Z,12.84
2019-02-27T10:26:02.270Z,12.87
2019-02-27T10:27:02.306Z,12.93
2019-02-27T10:28:04.307Z,12.97
2019-02-27T10:29:02.251Z,12.87
2019-02-27T10:30:11.090Z,12.97
2019-02-27T10:31:03.212Z,13.06
2019-02-27T10:32:02.232Z,13.14
2019-02-27T10:33:03.384Z,13.18
2019-02-27T10:34:02.184Z,13.29
2019-02-27T10:35:02.176Z,13.18
2019-02-27T10:36:03.632Z,13.24
2019-02-27T10:37:02.251Z,13.15
2019-02-27T10:38:02.149Z,13.32
2019-02-27T10:39:02.816Z,13.38
2019-02-27T10:40:02.122Z,13.47
2019-02-27T10:41:02.109Z,13.65
2019-02-27T10:42:02.138Z,13.59
2019-02-27T10:43:02.087Z,13.73
2019-02-27T10:44:02.076Z,13.69
2019-02-27T10:45:02.076Z,13.77
2019-02-27T10:46:02.061Z,13.74
2019-02-27T10:47:02.075Z,13.81
2019-02-27T10:48:02.036Z,13.91
2019-02-27T10:49:02.028Z,14.02
2019-02-27T10:50:02.878Z,14.02
2019-02-27T10:51:02.019Z,14.06
2019-02-27T10:52:02.019Z,14.12
2019-02-27T10:53:01.979Z,14.20
2019-02-27T10:54:05.140Z,14.27
2019-02-27T10:55:01.963Z,14.37
2019-02-27T10:56:01.967Z,14.39
2019-02-27T10:57:01.940Z,14.37
2019-02-27T10:58:01.955Z,14.39
2019-02-27T10:59:01.917Z,14.47
2019-02-27T11:00:01.918Z,14.47
2019-02-27T11:01:01.899Z,14.44
2019-02-27T11:02:01.885Z,14.49
2019-02-27T11:03:01.900Z,14.53
2019-02-27T11:04:03.134Z,14.57
2019-02-27T11:05:01.859Z,14.57
2019-02-27T11:06:01.842Z,14.68
2019-02-27T11:07:01.831Z,14.75
2019-02-27T11:08:01.821Z,14.75
2019-02-27T11:09:04.487Z,14.98
2019-02-27T11:10:01.807Z,15.02
2019-02-27T11:11:01.788Z,15.06
2019-02-27T11:12:01.780Z,15.05
2019-02-27T11:13:05.690Z,15.17
2019-02-27T11:14:01.789Z,15.21
2019-02-27T11:15:01.748Z,15.28
2019-02-27T11:16:01.735Z,15.35
2019-02-27T11:17:02.577Z,15.31
2019-02-27T11:18:05.390Z,15.42
2019-02-27T11:19:01.744Z,15.41
2019-02-27T11:20:01.699Z,15.51
2019-02-27T11:21:01.686Z,15.52
2019-02-27T11:22:01.673Z,15.52
2019-02-27T11:23:06.739Z,15.67
2019-02-27T11:24:02.677Z,15.68
2019-02-27T11:25:01.641Z,15.88
2019-02-27T11:26:01.631Z,15.86
2019-02-27T11:27:03.400Z,15.85
2019-02-27T11:28:01.623Z,15.82
2019-02-27T11:29:01.619Z,15.88
2019-02-27T11:30:03.072Z,16.01
2019-02-27T11:31:01.585Z,15.97
2019-02-27T11:32:01.570Z,16.07
2019-02-27T11:33:01.560Z,16.18
2019-02-27T11:34:01.570Z,16.16
2019-02-27T11:35:01.534Z,16.11
2019-02-27T11:36:03.205Z,16.20
2019-02-27T11:37:01.522Z,16.20
2019-02-27T11:38:01.501Z,16.11
2019-02-27T11:39:01.493Z,16.16
2019-02-27T11:40:02.388Z,16.09
2019-02-27T11:41:01.473Z,16.20
2019-02-27T11:42:01.462Z,16.27
2019-02-27T11:43:06.551Z,16.22
2019-02-27T11:44:02.439Z,16.23
2019-02-27T11:45:01.518Z,16.33
2019-02-27T11:46:01.459Z,16.44
2019-02-27T11:47:01.427Z,16.48
2019-02-27T11:48:01.427Z,16.53
2019-02-27T11:49:03.204Z,16.56
2019-02-27T11:50:02.390Z,16.67
2019-02-27T11:51:01.364Z,16.75
2019-02-27T11:52:01.364Z,16.77
2019-02-27T11:53:02.846Z,16.85
2019-02-27T11:54:01.332Z,16.77
2019-02-27T11:55:08.880Z,16.92
2019-02-27T11:56:01.314Z,16.86
2019-02-27T11:57:01.306Z,16.88
2019-02-27T11:58:04.415Z,16.80
2019-02-27T11:59:01.278Z,16.95
2019-02-27T12:00:01.292Z,16.99
2019-02-27T12:01:01.300Z,17.04
2019-02-27T12:02:01.269Z,17.15
2019-02-27T12:03:01.246Z,17.03
2019-02-27T12:04:01.223Z,17.06
2019-02-27T12:05:01.236Z,16.95
2019-02-27T12:06:01.242Z,16.80
2019-02-27T12:07:01.221Z,16.85
2019-02-27T12:08:01.189Z,16.81
2019-02-27T12:09:01.175Z,16.95
2019-02-27T12:10:01.185Z,16.95
2019-02-27T12:11:01.156Z,17.07
2019-02-27T12:12:01.138Z,17.10
2019-02-27T12:13:01.644Z,17.11
2019-02-27T12:14:01.118Z,17.15
2019-02-27T12:15:01.157Z,17.04
2019-02-27T12:16:01.108Z,17.04
2019-02-27T12:17:01.088Z,17.11
2019-02-27T12:18:01.827Z,17.18
2019-02-27T12:19:01.066Z,17.35
2019-02-27T12:20:01.064Z,17.38
2019-02-27T12:21:01.066Z,17.51
2019-02-27T12:22:01.032Z,17.64
2019-02-27T12:23:01.027Z,17.70
2019-02-27T12:24:01.014Z,17.81
2019-02-27T12:25:01.011Z,17.74
2019-02-27T12:26:02.495Z,17.89
2019-02-27T12:27:00.980Z,18.00
2019-02-27T12:28:00.969Z,18.09
2019-02-27T12:29:00.963Z,18.18
2019-02-27T12:30:02.748Z,18.29
2019-02-27T12:31:01.440Z,18.40
2019-02-27T12:32:00.922Z,18.21
2019-02-27T12:33:00.917Z,18.13
2019-02-27T12:34:03.260Z,18.03
2019-02-27T12:35:03.018Z,18.02
2019-02-27T12:36:00.904Z,18.13
2019-02-27T12:37:00.876Z,18.13
2019-02-27T12:38:00.868Z,18.28
2019-02-27T12:39:00.849Z,18.10
2019-02-27T12:40:00.846Z,18.09
2019-02-27T12:41:00.850Z,18.00
2019-02-27T12:42:00.816Z,18.09
2019-02-27T12:43:00.818Z,18.04
2019-02-27T12:44:00.794Z,18.18
2019-02-27T12:45:00.787Z,18.19
2019-02-27T12:46:01.631Z,18.29
2019-02-27T12:47:00.768Z,18.19
2019-02-27T12:48:00.770Z,18.17
2019-02-27T12:49:00.746Z,18.19
2019-02-27T12:50:00.736Z,18.36
2019-02-27T12:51:03.434Z,18.39
2019-02-27T12:52:01.449Z,18.37
2019-02-27T12:53:00.699Z,18.29
2019-02-27T12:54:00.694Z,18.31
2019-02-27T12:55:01.788Z,18.40
2019-02-27T12:56:00.679Z,18.42
2019-02-27T12:57:00.684Z,18.50
2019-02-27T12:58:00.644Z,18.57
2019-02-27T12:59:00.642Z,18.65
2019-02-27T13:00:00.624Z,18.73
2019-02-27T13:01:00.627Z,18.76
2019-02-27T13:02:08.087Z,18.79
2019-02-27T13:03:01.616Z,18.80
2019-02-27T13:04:00.582Z,18.82
2019-02-27T13:05:00.584Z,18.94
2019-02-27T13:06:00.971Z,18.83
2019-02-27T13:07:00.549Z,18.83
2019-02-27T13:08:00.560Z,18.87
2019-02-27T13:09:00.533Z,18.90
2019-02-27T13:10:00.528Z,18.97